createdAt,value
2023-03-26T00:00:31.158Z,10.64
2023-03-26T00:03:00.101Z,10.74
2023-03-26T00:05:32.985Z,10.79
2023-03-26T00:08:03.357Z,10.77
2023-03-26T00:10:32.209Z,10.54
2023-03-26T00:13:01.139Z,10.29
2023-03-26T00:15:30.425Z,9.98
2023-03-26T00:18:00.812Z,9.96
2023-03-26T00:20:33.052Z,10.23
2023-03-26T00:23:02.614Z,10.28
2023-03-26T00:25:32.096Z,10.39
2023-03-26T00:28:00.913Z,10.25
2023-03-26T00:30:31.107Z,10.37
2023-03-26T00:33:00.061Z,10.21
2023-03-26T00:35:31.217Z,10.30
2023-03-26T00:38:00.118Z,10.40
2023-03-26T00:40:30.153Z,10.41
2023-03-26T00:42:58.946Z,10.34
2023-03-26T00:45:27.773Z,10.49
2023-03-26T00:47:56.787Z,10.38
2023-03-26T00:50:25.629Z,10.47
2023-03-26T00:52:56.028Z,10.53
2023-03-26T00:55:24.894Z,10.67
2023-03-26T00:57:55.528Z,10.60
2023-03-26T01:00:31.999Z,10.71
2023-03-26T01:03:01.268Z,10.70
2023-03-26T01:05:48.830Z,10.55
2023-03-26T01:08:26.726Z,10.56
2023-03-26T01:11:02.808Z,10.48
2023-03-26T01:13:34.018Z,10.45
2023-03-26T01:16:04.462Z,10.60
2023-03-26T01:18:41.117Z,10.52
2023-03-26T01:21:13.922Z,10.46
2023-03-26T01:23:49.042Z,10.48
2023-03-26T01:26:33.602Z,10.56
2023-03-26T01:29:08.349Z,10.50
2023-03-26T01:31:46.477Z,10.30
2023-03-26T01:34:23.330Z,10.25
2023-03-26T01:37:00.953Z,10.34
2023-03-26T01:39:38.975Z,10.42
2023-03-26T01:42:12.717Z,10.35
2023-03-26T01:44:48.161Z,10.42
2023-03-26T01:47:18.922Z,10.42
2023-03-26T01:49:48.616Z,10.37
2023-03-26T01:52:20.491Z,9.77
2023-03-26T01:54:50.397Z,9.53
2023-03-26T01:57:31.029Z,9.48
2023-03-26T02:00:20.874Z,9.67
2023-03-26T02:03:17.671Z,9.76
2023-03-26T02:05:54.515Z,9.82
2023-03-26T02:08:31.714Z,9.86
2023-03-26T02:11:04.519Z,10.07
2023-03-26T02:13:34.743Z,10.19
2023-03-26T02:16:06.721Z,10.18
2023-03-26T02:18:38.934Z,10.20
2023-03-26T02:21:11.035Z,10.14
2023-03-26T02:23:46.891Z,10.11
2023-03-26T02:26:17.893Z,9.72
2023-03-26T02:29:11.273Z,9.54
2023-03-26T02:31:43.502Z,9.46
2023-03-26T02:34:12.456Z,9.03
2023-03-26T02:36:47.539Z,8.72
2023-03-26T02:39:16.976Z,8.93
2023-03-26T02:41:53.665Z,8.83
2023-03-26T02:44:24.336Z,8.88
2023-03-26T02:47:02.538Z,9.37
2023-03-26T02:49:51.585Z,9.64
2023-03-26T02:52:43.557Z,9.34
2023-03-26T02:55:12.531Z,8.54
2023-03-26T02:57:43.194Z,8.65
2023-03-26T03:00:22.699Z,8.66
2023-03-26T03:02:53.011Z,8.66
2023-03-26T03:05:26.363Z,8.88
2023-03-26T03:08:08.285Z,9.15
2023-03-26T03:10:39.597Z,9.27
2023-03-26T03:13:18.331Z,9.42
2023-03-26T03:15:48.654Z,9.48
2023-03-26T03:18:17.438Z,9.36
2023-03-26T03:20:46.952Z,9.37
2023-03-26T03:23:16.096Z,9.11
2023-03-26T03:25:45.360Z,9.16
2023-03-26T03:28:14.331Z,9.19
2023-03-26T03:30:43.114Z,9.30
2023-03-26T03:33:26.217Z,8.99
2023-03-26T03:35:55.235Z,9.01
2023-03-26T03:38:25.052Z,9.17
2023-03-26T03:40:55.998Z,9.18
2023-03-26T03:43:30.551Z,9.17
2023-03-26T03:46:08.034Z,9.26
2023-03-26T03:48:49.940Z,9.17
2023-03-26T03:51:31.334Z,8.94
2023-03-26T03:54:03.572Z,9.05
2023-03-26T03:56:55.083Z,9.14
2023-03-26T03:59:39.122Z,9.18
2023-03-26T04:02:26.775Z,9.23
2023-03-26T04:05:03.776Z,9.39
2023-03-26T04:07:33.709Z,9.38
2023-03-26T04:10:10.721Z,9.24
2023-03-26T04:13:03.785Z,8.94
2023-03-26T04:15:53.119Z,8.80
2023-03-26T04:18:22.382Z,8.67
2023-03-26T04:20:54.708Z,8.46
2023-03-26T04:23:29.350Z,8.42
2023-03-26T04:26:10.600Z,8.45
2023-03-26T04:29:02.790Z,8.23
2023-03-26T04:31:34.198Z,8.32
2023-03-26T04:34:14.368Z,8.81
2023-03-26T04:37:03.470Z,8.57
2023-03-26T04:39:39.528Z,8.66
2023-03-26T04:42:28.644Z,8.59
2023-03-26T04:45:11.280Z,8.44
2023-03-26T04:47:42.280Z,8.36
2023-03-26T04:50:12.784Z,8.36
2023-03-26T04:52:45.387Z,8.42
2023-03-26T04:55:58.449Z,8.59
2023-03-26T04:58:48.113Z,8.69
2023-03-26T05:01:17.776Z,8.54
2023-03-26T05:03:48.345Z,8.49
2023-03-26T05:06:18.955Z,8.56
2023-03-26T05:08:49.445Z,8.57
2023-03-26T05:11:35.448Z,8.51
2023-03-26T05:14:05.246Z,8.52
2023-03-26T05:16:34.930Z,8.58
2023-03-26T05:19:09.414Z,8.83
2023-03-26T05:21:38.084Z,8.70
2023-03-26T05:24:08.700Z,8.63
2023-03-26T05:26:38.211Z,8.58
2023-03-26T05:29:07.178Z,8.46
2023-03-26T05:31:44.461Z,8.84
2023-03-26T05:34:13.379Z,9.01
2023-03-26T05:36:44.002Z,9.00
2023-03-26T05:39:45.893Z,9.23
2023-03-26T05:42:40.562Z,9.47
2023-03-26T05:45:32.787Z,9.85
2023-03-26T05:48:08.845Z,9.89
2023-03-26T05:50:37.893Z,9.99
2023-03-26T05:53:07.193Z,9.84
2023-03-26T05:56:07.582Z,10.30
2023-03-26T05:58:57.260Z,10.48
2023-03-26T06:01:45.170Z,10.66
2023-03-26T06:04:17.225Z,10.82
2023-03-26T06:07:12.074Z,10.03
2023-03-26T06:09:45.276Z,10.09
2023-03-26T06:12:15.854Z,9.67
2023-03-26T06:14:45.899Z,10.24
2023-03-26T06:17:41.432Z,9.96
2023-03-26T06:20:37.566Z,9.78
2023-03-26T06:23:16.365Z,10.11
2023-03-26T06:26:04.138Z,10.09
2023-03-26T06:28:56.977Z,10.38
2023-03-26T06:31:44.722Z,10.79
2023-03-26T06:34:29.201Z,11.32
2023-03-26T06:36:58.491Z,11.83
2023-03-26T06:39:28.026Z,11.54
2023-03-26T06:43:08.301Z,11.66
2023-03-26T06:45:36.481Z,10.05
2023-03-26T06:48:23.981Z,10.47
2023-03-26T06:51:13.058Z,10.88
2023-03-26T06:54:17.407Z,11.91
2023-03-26T06:56:59.959Z,12.25
2023-03-26T07:00:03.959Z,12.12
2023-03-26T07:02:53.026Z,12.26
2023-03-26T07:05:42.014Z,11.07
2023-03-26T07:08:30.946Z,11.78
2023-03-26T07:11:20.784Z,11.65
2023-03-26T07:14:18.594Z,12.24
2023-03-26T07:17:12.859Z,12.22
2023-03-26T07:19:55.447Z,12.55
2023-03-26T07:22:28.437Z,13.11
2023-03-26T07:25:08.060Z,12.72
2023-03-26T07:28:06.720Z,13.81
2023-03-26T07:31:22.769Z,13.81
2023-03-26T07:34:43.888Z,13.25
2023-03-26T07:37:45.354Z,12.29
2023-03-26T07:40:49.455Z,12.86
2023-03-26T07:44:13.702Z,13.99
2023-03-26T07:46:58.198Z,13.93
2023-03-26T07:49:38.348Z,13.85
2023-03-26T07:52:24.644Z,14.68
2023-03-26T07:55:22.466Z,13.65
2023-03-26T07:58:28.284Z,14.37
2023-03-26T08:01:18.867Z,14.63
2023-03-26T08:04:23.758Z,14.61
2023-03-26T08:07:35.073Z,13.29
2023-03-26T08:10:22.263Z,14.08
2023-03-26T08:13:07.634Z,14.02
2023-03-26T08:15:44.027Z,14.70
2023-03-26T08:18:32.531Z,15.25
2023-03-26T08:21:06.338Z,14.39
2023-03-26T08:23:50.303Z,14.81
2023-03-26T08:26:32.918Z,14.82
2023-03-26T08:29:14.270Z,14.74
2023-03-26T08:31:46.056Z,14.76
2023-03-26T08:34:15.519Z,14.39
2023-03-26T08:36:44.345Z,14.52
2023-03-26T08:39:14.686Z,14.69
2023-03-26T08:42:22.595Z,15.26
2023-03-26T08:45:17.781Z,15.97
2023-03-26T08:48:12.115Z,16.28
2023-03-26T08:50:59.328Z,16.08
2023-03-26T08:54:04.410Z,15.31
2023-03-26T08:56:42.694Z,16.74
2023-03-26T09:00:02.982Z,16.00
2023-03-26T09:03:07.144Z,17.70
2023-03-26T09:06:11.318Z,18.55
2023-03-26T09:09:19.039Z,18.19
2023-03-26T09:12:11.726Z,18.11
2023-03-26T09:15:22.845Z,18.11
2023-03-26T09:18:28.612Z,17.86
2023-03-26T09:21:40.390Z,15.56
2023-03-26T09:24:50.152Z,16.09
2023-03-26T09:27:52.613Z,16.73
2023-03-26T09:30:48.136Z,17.68
2023-03-26T09:33:29.452Z,17.01
2023-03-26T09:36:20.275Z,17.30
2023-03-26T09:38:56.161Z,18.54
2023-03-26T09:41:37.806Z,18.92
2023-03-26T09:44:29.467Z,16.68
2023-03-26T09:47:22.362Z,15.55
2023-03-26T09:49:54.788Z,15.17
2023-03-26T09:52:45.684Z,16.81
2023-03-26T09:55:29.533Z,17.13
2023-03-26T09:58:19.649Z,16.42
2023-03-26T10:00:54.885Z,15.13
2023-03-26T10:03:38.259Z,15.60
2023-03-26T10:06:31.616Z,14.75
2023-03-26T10:09:22.073Z,17.07
2023-03-26T10:12:11.003Z,17.94
2023-03-26T10:14:47.594Z,17.27
2023-03-26T10:17:33.726Z,18.66
2023-03-26T10:20:19.480Z,17.68
2023-03-26T10:23:02.367Z,15.81
2023-03-26T10:25:41.113Z,15.53
2023-03-26T10:28:25.187Z,16.42
2023-03-26T10:31:38.096Z,17.05
2023-03-26T10:34:28.687Z,17.56
2023-03-26T10:37:07.859Z,15.76
2023-03-26T10:39:56.743Z,15.46
2023-03-26T10:42:42.775Z,16.35
2023-03-26T10:45:37.496Z,15.71
2023-03-26T10:48:30.405Z,15.72
2023-03-26T10:51:20.147Z,16.37
2023-03-26T10:53:52.394Z,16.85
2023-03-26T10:56:27.722Z,16.14
2023-03-26T10:58:57.941Z,16.76
2023-03-26T11:01:43.032Z,16.28
2023-03-26T11:04:32.074Z,16.18
2023-03-26T11:07:14.153Z,16.11
2023-03-26T11:09:48.650Z,17.42
2023-03-26T11:12:28.430Z,18.03
2023-03-26T11:15:11.805Z,17.95
2023-03-26T11:17:50.433Z,18.46
2023-03-26T11:20:23.798Z,16.72
2023-03-26T11:23:07.608Z,16.42
2023-03-26T11:25:52.158Z,16.10
2023-03-26T11:28:35.505Z,16.21
2023-03-26T11:31:14.079Z,16.04
2023-03-26T11:33:49.143Z,16.37
2023-03-26T11:36:23.236Z,16.01
2023-03-26T11:38:52.634Z,16.72
2023-03-26T11:41:28.990Z,16.88
2023-03-26T11:44:28.301Z,16.23
2023-03-26T11:47:02.239Z,16.46
2023-03-26T11:49:33.684Z,16.54
2023-03-26T11:52:03.930Z,17.09
2023-03-26T11:54:33.879Z,18.36
2023-03-26T11:57:09.651Z,17.30
2023-03-26T11:59:55.822Z,17.51
2023-03-26T12:02:32.633Z,17.99
2023-03-26T12:05:16.446Z,18.03
2023-03-26T12:07:53.534Z,18.26
2023-03-26T12:10:25.707Z,18.34
2023-03-26T12:12:57.944Z,17.13
2023-03-26T12:15:28.353Z,17.99
2023-03-26T12:17:59.270Z,19.12
2023-03-26T12:20:38.898Z,17.99
2023-03-26T12:23:08.271Z,17.56
2023-03-26T12:25:38.939Z,16.78
2023-03-26T12:28:19.858Z,17.31
2023-03-26T12:30:54.999Z,17.35
2023-03-26T12:33:27.875Z,17.40
2023-03-26T12:36:00.602Z,18.47
2023-03-26T12:38:34.701Z,19.33
2023-03-26T12:42:25.698Z,19.86
2023-03-26T12:44:52.689Z,19.89
2023-03-26T12:47:56.942Z,19.32
2023-03-26T12:49:36.682Z,18.80
2023-03-26T12:52:25.261Z,17.37
2023-03-26T12:55:03.578Z,17.27
2023-03-26T12:57:53.867Z,17.53
2023-03-26T13:00:31.993Z,17.18
2023-03-26T13:03:16.375Z,16.79
2023-03-26T13:06:09.349Z,16.19
2023-03-26T13:09:15.781Z,16.40
2023-03-26T13:11:56.383Z,17.30
2023-03-26T13:14:45.700Z,17.76
2023-03-26T13:17:23.248Z,18.29
2023-03-26T13:20:02.279Z,18.84
2023-03-26T13:22:43.602Z,18.74
2023-03-26T13:25:24.970Z,18.71
2023-03-26T13:28:03.954Z,19.18
2023-03-26T13:30:38.036Z,17.94
2023-03-26T13:33:33.192Z,18.10
2023-03-26T13:36:22.589Z,18.94
2023-03-26T13:39:05.066Z,19.56
2023-03-26T13:41:46.101Z,20.26
2023-03-26T13:44:29.486Z,18.71
2023-03-26T13:47:03.853Z,18.49
2023-03-26T13:49:38.938Z,18.18
2023-03-26T13:52:12.992Z,17.04
2023-03-26T13:54:47.784Z,16.71
2023-03-26T13:57:25.487Z,16.49
2023-03-26T14:00:00.998Z,16.13
2023-03-26T14:02:37.200Z,16.92
2023-03-26T14:05:12.382Z,17.12
2023-03-26T14:07:45.819Z,16.94
2023-03-26T14:10:18.811Z,17.09
2023-03-26T14:12:57.080Z,17.44
2023-03-26T14:15:30.717Z,17.50
2023-03-26T14:18:07.787Z,17.64
2023-03-26T14:21:02.675Z,17.11
2023-03-26T14:24:17.235Z,16.73
2023-03-26T14:26:59.789Z,16.40
2023-03-26T14:29:56.378Z,16.79
2023-03-26T14:32:38.014Z,16.90
2023-03-26T14:35:23.439Z,16.53
2023-03-26T14:38:32.900Z,16.94
2023-03-26T14:41:18.774Z,16.78
2023-03-26T14:44:47.909Z,16.91
2023-03-26T14:47:20.913Z,16.67
2023-03-26T14:50:20.233Z,16.76
2023-03-26T14:52:51.718Z,16.49
2023-03-26T14:55:44.089Z,16.38
2023-03-26T14:58:45.017Z,16.48
2023-03-26T15:01:48.435Z,16.72
2023-03-26T15:04:54.491Z,17.00
2023-03-26T15:08:03.003Z,16.95
2023-03-26T15:10:55.414Z,16.62
2023-03-26T15:13:42.503Z,16.85
2023-03-26T15:16:45.151Z,16.79
2023-03-26T15:20:02.340Z,17.16
2023-03-26T15:23:05.595Z,17.58
2023-03-26T15:25:57.150Z,17.71
2023-03-26T15:29:13.598Z,17.89
2023-03-26T15:32:06.276Z,17.63
2023-03-26T15:35:13.534Z,17.36
2023-03-26T15:38:06.139Z,17.32
2023-03-26T15:41:00.786Z,16.93
2023-03-26T15:44:25.066Z,17.09
2023-03-26T15:47:17.936Z,16.95
2023-03-26T15:49:52.268Z,17.00
2023-03-26T15:52:29.917Z,17.07
2023-03-26T15:55:06.969Z,16.83
2023-03-26T15:58:01.523Z,16.62
2023-03-26T16:00:35.681Z,16.66
2023-03-26T16:03:20.210Z,16.53
2023-03-26T16:06:11.706Z,16.78
2023-03-26T16:08:47.198Z,16.88
2023-03-26T16:11:48.876Z,16.85
2023-03-26T16:14:23.554Z,16.76
2023-03-26T16:16:56.120Z,16.44
2023-03-26T16:19:37.104Z,16.06
2023-03-26T16:22:09.770Z,15.81
2023-03-26T16:24:42.483Z,15.63
2023-03-26T16:27:35.202Z,15.02
2023-03-26T16:30:20.195Z,14.67
2023-03-26T16:32:56.232Z,14.56
2023-03-26T16:35:43.252Z,14.51
2023-03-26T16:38:14.819Z,14.31
2023-03-26T16:41:00.530Z,14.24
2023-03-26T16:43:45.477Z,14.28
2023-03-26T16:46:28.599Z,14.29
2023-03-26T16:49:04.929Z,14.33
2023-03-26T16:51:55.033Z,14.31
2023-03-26T16:54:32.326Z,14.01
2023-03-26T16:57:11.334Z,13.88
2023-03-26T17:00:08.011Z,13.87
2023-03-26T17:02:51.334Z,13.79
2023-03-26T17:05:25.799Z,13.87
2023-03-26T17:08:03.016Z,13.74
2023-03-26T17:10:39.138Z,13.85
2023-03-26T17:13:11.186Z,13.87
2023-03-26T17:15:49.466Z,13.82
2023-03-26T17:18:29.452Z,13.65
2023-03-26T17:21:04.305Z,13.59
2023-03-26T17:23:59.076Z,13.62
2023-03-26T17:26:35.748Z,13.65
2023-03-26T17:29:21.790Z,13.58
2023-03-26T17:31:59.572Z,13.83
2023-03-26T17:34:47.080Z,14.23
2023-03-26T17:37:32.372Z,14.40
2023-03-26T17:40:44.727Z,13.85
2023-03-26T17:43:33.148Z,13.44
2023-03-26T17:46:04.627Z,13.25
2023-03-26T17:48:37.986Z,12.62
2023-03-26T17:51:31.759Z,12.43
2023-03-26T17:54:03.023Z,12.55
2023-03-26T17:56:33.332Z,12.49
2023-03-26T17:59:11.819Z,12.00
2023-03-26T18:01:46.065Z,12.21
2023-03-26T18:04:22.642Z,12.03
2023-03-26T18:07:07.894Z,12.09
2023-03-26T18:09:49.302Z,12.03
2023-03-26T18:12:43.988Z,12.09
2023-03-26T18:15:28.696Z,12.06
2023-03-26T18:18:10.378Z,11.75
2023-03-26T18:20:42.686Z,12.00
2023-03-26T18:23:20.879Z,12.01
2023-03-26T18:25:57.255Z,11.77
2023-03-26T18:28:36.682Z,11.67
2023-03-26T18:31:16.670Z,11.62
2023-03-26T18:33:47.771Z,11.94
2023-03-26T18:36:19.770Z,12.32
2023-03-26T18:38:49.033Z,12.40
2023-03-26T18:41:24.940Z,12.39
2023-03-26T18:43:54.034Z,12.33
2023-03-26T18:46:25.005Z,12.26
2023-03-26T18:48:55.785Z,11.95
2023-03-26T18:51:29.509Z,11.80
2023-03-26T18:54:03.382Z,11.73
2023-03-26T18:56:36.016Z,11.58
2023-03-26T18:59:06.786Z,11.68
2023-03-26T19:01:37.129Z,11.72
2023-03-26T19:04:07.996Z,11.59
2023-03-26T19:06:42.878Z,11.65
2023-03-26T19:09:28.046Z,11.70
2023-03-26T19:12:06.598Z,11.66
2023-03-26T19:14:51.401Z,11.41
2023-03-26T19:17:20.276Z,11.37
2023-03-26T19:19:50.755Z,11.38
2023-03-26T19:22:22.602Z,11.15
2023-03-26T19:24:57.654Z,11.12
2023-03-26T19:27:26.655Z,10.98
2023-03-26T19:29:55.559Z,11.07
2023-03-26T19:32:32.459Z,11.07
2023-03-26T19:35:04.505Z,10.94
2023-03-26T19:37:34.708Z,10.88
2023-03-26T19:40:14.887Z,10.81
2023-03-26T19:42:45.123Z,10.75
2023-03-26T19:45:18.920Z,10.93
2023-03-26T19:48:00.156Z,10.73
2023-03-26T19:50:38.762Z,10.61
2023-03-26T19:53:17.664Z,10.61
2023-03-26T19:55:58.684Z,10.56
2023-03-26T19:58:28.752Z,10.82
2023-03-26T20:00:57.754Z,10.91
2023-03-26T20:03:30.199Z,10.85
2023-03-26T20:05:59.154Z,10.52
2023-03-26T20:08:29.306Z,10.44
2023-03-26T20:10:59.206Z,10.41
2023-03-26T20:13:30.201Z,10.22
2023-03-26T20:16:06.380Z,10.11
2023-03-26T20:18:35.679Z,10.11
2023-03-26T20:21:11.035Z,10.24
2023-03-26T20:23:41.220Z,9.37
2023-03-26T20:26:13.538Z,8.67
2023-03-26T20:28:48.635Z,8.88
2023-03-26T20:31:25.222Z,9.16
2023-03-26T20:33:56.446Z,9.22
2023-03-26T20:36:34.256Z,9.36
2023-03-26T20:39:06.656Z,9.41
2023-03-26T20:41:38.122Z,9.30
2023-03-26T20:44:13.796Z,9.10
2023-03-26T20:46:44.050Z,9.01
2023-03-26T20:49:15.128Z,8.95
2023-03-26T20:51:45.239Z,9.15
2023-03-26T20:54:19.665Z,9.18
2023-03-26T20:56:49.210Z,9.23
2023-03-26T20:59:22.365Z,9.32
2023-03-26T21:01:52.076Z,9.26
2023-03-26T21:04:22.014Z,9.42
2023-03-26T21:06:51.713Z,9.55
2023-03-26T21:09:24.236Z,9.22
2023-03-26T21:12:02.231Z,8.57
2023-03-26T21:14:34.021Z,8.23
2023-03-26T21:17:03.486Z,8.47
2023-03-26T21:19:32.939Z,8.42
2023-03-26T21:22:12.167Z,8.60
2023-03-26T21:24:52.423Z,8.68
2023-03-26T21:27:27.536Z,8.68
2023-03-26T21:29:58.266Z,8.72
2023-03-26T21:32:27.931Z,8.78
2023-03-26T21:34:59.344Z,8.79
2023-03-26T21:37:28.968Z,8.93
2023-03-26T21:40:00.701Z,8.90
2023-03-26T21:42:31.144Z,8.87
2023-03-26T21:45:00.545Z,8.80
2023-03-26T21:47:31.128Z,8.83
2023-03-26T21:50:00.417Z,8.76
2023-03-26T21:52:31.903Z,8.76
2023-03-26T21:55:05.958Z,8.46
2023-03-26T21:57:50.709Z,8.39
2023-03-26T22:00:25.751Z,8.42
2023-03-26T22:03:08.493Z,8.51
2023-03-26T22:05:43.402Z,8.45
2023-03-26T22:08:22.614Z,8.27
2023-03-26T22:10:52.906Z,8.14
2023-03-26T22:13:21.757Z,8.26
2023-03-26T22:15:50.947Z,8.35
2023-03-26T22:18:21.635Z,8.31
2023-03-26T22:20:50.573Z,8.12
2023-03-26T22:23:19.521Z,8.10
2023-03-26T22:25:48.587Z,7.87
2023-03-26T22:28:19.313Z,7.85
2023-03-26T22:30:48.170Z,7.60
2023-03-26T22:33:17.966Z,7.86
2023-03-26T22:35:47.079Z,7.74
2023-03-26T22:38:17.490Z,7.58
2023-03-26T22:40:46.246Z,7.57
2023-03-26T22:43:15.103Z,7.60
2023-03-26T22:45:50.021Z,7.59
2023-03-26T22:48:18.781Z,7.72
2023-03-26T22:50:57.775Z,7.74
2023-03-26T22:53:26.586Z,7.72
2023-03-26T22:55:55.753Z,7.59
2023-03-26T22:58:25.048Z,7.62
2023-03-26T23:01:05.507Z,7.49
2023-03-26T23:03:36.005Z,7.30
2023-03-26T23:06:07.144Z,7.00
2023-03-26T23:08:38.207Z,7.17
2023-03-26T23:11:10.738Z,7.24
2023-03-26T23:13:39.804Z,7.25
2023-03-26T23:16:11.313Z,7.26
2023-03-26T23:18:41.182Z,7.37
2023-03-26T23:21:14.690Z,7.41
2023-03-26T23:23:43.726Z,7.36
2023-03-26T23:26:12.557Z,7.32
2023-03-26T23:28:42.020Z,7.35
2023-03-26T23:31:14.119Z,7.37
2023-03-26T23:33:46.188Z,7.29
2023-03-26T23:36:18.735Z,7.19
2023-03-26T23:38:49.151Z,7.37
2023-03-26T23:41:19.704Z,7.19
2023-03-26T23:43:54.661Z,7.13
2023-03-26T23:46:30.958Z,7.17
2023-03-26T23:49:02.609Z,7.24
2023-03-26T23:51:31.776Z,7.22
2023-03-26T23:54:02.242Z,7.04
2023-03-26T23:56:32.040Z,7.03
2023-03-26T23:59:00.946Z,7.20
